Time;durP1;ratioP1;P1;durP2;ratioP2;P2;SDS_P1;SDS_P2;PMS_P1;PMS_P2;Temp;Humidity;BMP_temperature;BMP_pressure;BME280_temperature;BME280_humidity;BME280_pressure;Samples;Min_cycle;Max_cycle;Signal;HPM_P1;HPM_P2
2023/02/16 00:00:43;;;;;;;105.82;9.20;;;1.90;99.90;;;;;;4995154;28;87450;-71
2023/02/16 00:03:14;;;;;;;83.97;8.32;;;1.90;99.90;;;;;;4977879;28;88452;-71
2023/02/16 00:05:40;;;;;;;156.02;9.75;;;2.00;99.90;;;;;;4979052;28;87506;-70
2023/02/16 00:08:06;;;;;;;97.90;9.38;;;2.10;99.90;;;;;;4986372;28;87576;-70
2023/02/16 00:10:34;;;;;;;223.90;12.13;;;2.10;99.90;;;;;;4979115;28;87617;-71
2023/02/16 00:15:45;;;;;;;200.07;10.25;;;2.20;99.90;;;;;;4973851;28;87601;-71
2023/02/16 00:18:19;;;;;;;143.48;11.02;;;2.20;99.90;;;;;;4979721;28;88221;-69
2023/02/16 00:20:47;;;;;;;255.40;13.60;;;2.20;99.90;;;;;;4989766;28;87304;-70
2023/02/16 00:23:12;;;;;;;181.32;11.35;;;2.20;99.90;;;;;;4986473;28;87197;-71
2023/02/16 00:25:38;;;;;;;198.93;10.07;;;2.30;99.90;;;;;;4994148;28;87137;-72
2023/02/16 00:28:11;;;;;;;262.77;12.70;;;2.30;99.90;;;;;;4997148;28;88308;-70
2023/02/16 00:30:38;;;;;;;159.50;12.00;;;2.20;99.90;;;;;;4995023;28;89032;-71
2023/02/16 00:33:16;;;;;;;289.13;12.60;;;2.20;99.90;;;;;;4980869;28;87201;-70
2023/02/16 00:35:43;;;;;;;153.48;12.02;;;2.20;99.90;;;;;;4973789;28;87505;-70
2023/02/16 00:38:09;;;;;;;164.38;12.88;;;2.20;99.90;;;;;;4977705;28;87434;-70
2023/02/16 00:40:35;;;;;;;159.30;14.65;;;2.30;99.90;;;;;;4980001;28;89463;-72
2023/02/16 00:43:01;;;;;;;192.27;10.90;;;2.30;99.90;;;;;;4987906;28;87353;-73
2023/02/16 00:45:27;;;;;;;184.27;13.63;;;2.40;99.90;;;;;;4986243;28;86735;-71
2023/02/16 00:47:53;;;;;;;115.22;10.10;;;2.40;99.90;;;;;;4977626;28;87914;-71
2023/02/16 00:50:29;;;;;;;136.18;11.15;;;2.30;99.90;;;;;;4978148;28;87429;-73
2023/02/16 00:52:57;;;;;;;93.80;10.20;;;2.40;99.90;;;;;;4977553;28;88268;-72
2023/02/16 00:55:29;;;;;;;94.30;10.90;;;2.40;99.90;;;;;;4994508;28;87381;-73
2023/02/16 00:58:02;;;;;;;147.70;10.65;;;2.40;99.90;;;;;;4981642;28;88999;-71
2023/02/16 01:00:34;;;;;;;187.82;11.20;;;2.40;99.90;;;;;;4975576;28;88187;-71
2023/02/16 01:03:03;;;;;;;207.13;13.45;;;2.50;99.90;;;;;;4976325;28;87356;-72
2023/02/16 01:05:29;;;;;;;186.02;11.07;;;2.40;99.90;;;;;;4985128;28;87404;-70
2023/02/16 01:13:26;;;;;;;225.27;12.40;;;2.30;99.90;;;;;;4966710;28;87118;-70
2023/02/16 01:15:52;;;;;;;69.40;10.05;;;2.20;99.90;;;;;;4988445;28;87681;-72
2023/02/16 01:18:18;;;;;;;93.95;10.48;;;2.30;99.90;;;;;;4974882;28;88636;-72
2023/02/16 01:20:45;;;;;;;124.82;9.43;;;2.30;99.90;;;;;;4982493;28;87313;-70
2023/02/16 01:23:11;;;;;;;143.65;10.10;;;2.40;99.90;;;;;;4978983;28;87311;-73
2023/02/16 01:25:38;;;;;;;115.80;10.65;;;2.30;99.90;;;;;;4995752;28;87701;-72
2023/02/16 01:28:24;;;;;;;301.17;14.77;;;2.20;99.90;;;;;;4980867;28;88257;-71
2023/02/16 01:30:51;;;;;;;84.03;10.50;;;2.20;99.90;;;;;;4997331;28;87554;-71
2023/02/16 01:33:16;;;;;;;76.90;9.50;;;2.30;99.90;;;;;;4979443;28;87129;-72
2023/02/16 01:35:43;;;;;;;114.97;10.45;;;2.30;99.90;;;;;;4977960;28;86570;-72
2023/02/16 01:38:25;;;;;;;125.90;9.93;;;2.30;99.90;;;;;;4977065;28;87594;-71
2023/02/16 01:41:21;;;;;;;97.30;10.63;;;2.40;99.90;;;;;;4977041;28;87972;-72
2023/02/16 01:44:00;;;;;;;92.93;10.15;;;2.40;99.90;;;;;;4976838;28;88330;-71
2023/02/16 01:46:53;;;;;;;190.63;11.02;;;2.40;99.90;;;;;;4972715;28;87455;-72
2023/02/16 01:49:20;;;;;;;221.23;12.05;;;2.40;99.90;;;;;;4987515;28;89261;-71
2023/02/16 01:52:01;;;;;;;111.55;10.23;;;2.20;99.90;;;;;;4977737;28;87765;-72
2023/02/16 01:55:00;;;;;;;102.97;10.40;;;2.30;99.90;;;;;;4977067;28;87210;-71
2023/02/16 01:57:53;;;;;;;67.35;9.75;;;2.30;99.90;;;;;;4976958;28;87293;-72
2023/02/16 02:00:50;;;;;;;88.75;10.77;;;2.40;99.90;;;;;;4979237;28;88162;-74
2023/02/16 02:06:09;;;;;;;158.20;11.25;;;2.40;99.90;;;;;;4985097;28;87710;-73
2023/02/16 02:08:58;;;;;;;98.03;10.02;;;2.40;99.90;;;;;;4981679;28;88239;-71
2023/02/16 02:11:37;;;;;;;128.20;11.10;;;2.40;99.90;;;;;;4972739;28;88537;-72
2023/02/16 02:14:25;;;;;;;84.22;9.95;;;2.40;99.90;;;;;;4993539;28;88420;-72
2023/02/16 02:17:01;;;;;;;71.63;9.50;;;2.40;99.90;;;;;;4988648;28;87560;-73
2023/02/16 02:19:28;;;;;;;79.60;10.23;;;2.40;99.90;;;;;;4982308;28;88060;-71
2023/02/16 02:24:56;;;;;;;96.85;11.63;;;2.60;99.90;;;;;;4977850;28;87279;-71
2023/02/16 02:27:24;;;;;;;64.13;11.35;;;2.60;99.90;;;;;;4976267;28;87626;-72
2023/02/16 02:29:50;;;;;;;55.50;9.88;;;2.60;99.90;;;;;;4980299;28;86651;-73
2023/02/16 02:32:27;;;;;;;99.13;11.77;;;2.60;99.90;;;;;;4980879;28;88894;-74
2023/02/16 02:35:35;;;;;;;42.20;9.68;;;2.70;99.90;;;;;;4980004;28;87369;-72
2023/02/16 02:38:10;;;;;;;86.63;9.70;;;2.70;99.90;;;;;;4978418;28;88386;-72
2023/02/16 02:41:07;;;;;;;55.30;10.50;;;2.80;99.90;;;;;;4994386;28;87481;-71
2023/02/16 02:43:32;;;;;;;89.05;9.13;;;2.70;99.90;;;;;;4979414;28;88948;-72
2023/02/16 02:46:20;;;;;;;77.55;10.27;;;2.70;99.90;;;;;;4980890;28;88104;-70
2023/02/16 02:48:46;;;;;;;88.13;9.98;;;2.80;99.90;;;;;;4981349;28;87400;-71
2023/02/16 02:51:28;;;;;;;77.30;10.00;;;2.70;99.90;;;;;;4986823;28;87639;-71
2023/02/16 03:02:32;;;;;;;134.13;8.80;;;2.80;99.90;;;;;;4982254;28;87851;-72
2023/02/16 03:04:59;;;;;;;345.95;13.32;;;2.80;99.90;;;;;;4977676;28;89232;-72
2023/02/16 03:07:45;;;;;;;304.80;14.27;;;2.80;99.90;;;;;;4998406;28;88075;-71
2023/02/16 03:13:23;;;;;;;157.32;10.57;;;2.60;99.90;;;;;;4986385;28;87241;-71
2023/02/16 03:15:54;;;;;;;202.90;13.05;;;2.60;99.90;;;;;;4978881;28;88065;-70
2023/02/16 03:29:26;;;;;;;148.38;10.70;;;2.60;99.90;;;;;;4993722;28;87839;-72
2023/02/16 03:31:54;;;;;;;197.25;10.25;;;2.70;99.90;;;;;;4984083;28;89683;-72
2023/02/16 03:34:21;;;;;;;118.47;11.15;;;2.70;99.90;;;;;;4989734;28;87456;-72
2023/02/16 03:36:57;;;;;;;129.90;9.93;;;2.70;99.90;;;;;;4980834;28;89200;-71
2023/02/16 03:39:27;;;;;;;213.27;11.05;;;2.70;99.90;;;;;;4983283;28;87389;-70
2023/02/16 03:41:54;;;;;;;144.85;10.13;;;2.80;99.90;;;;;;4996132;28;87096;-72
2023/02/16 03:44:21;;;;;;;230.88;10.13;;;2.70;99.90;;;;;;4989088;28;87307;-72
2023/02/16 03:46:48;;;;;;;256.30;11.23;;;2.60;99.90;;;;;;4994359;28;88117;-73
2023/02/16 03:49:15;;;;;;;261.50;13.10;;;2.50;99.90;;;;;;4981966;28;88010;-71
2023/02/16 03:51:40;;;;;;;123.18;10.35;;;2.50;99.90;;;;;;4978858;28;87654;-73
2023/02/16 03:54:06;;;;;;;248.85;11.98;;;2.40;99.90;;;;;;4979475;28;87495;-74
2023/02/16 03:56:32;;;;;;;190.90;10.82;;;2.40;99.90;;;;;;4977934;28;89734;-70
2023/02/16 03:58:58;;;;;;;100.13;10.18;;;2.40;99.90;;;;;;4986652;28;88273;-71
2023/02/16 04:01:24;;;;;;;93.30;10.73;;;2.20;99.90;;;;;;4998858;28;87534;-70
2023/02/16 04:03:49;;;;;;;93.55;9.18;;;2.10;99.90;;;;;;4985354;28;87103;-70
2023/02/16 04:06:15;;;;;;;75.22;11.25;;;2.00;99.90;;;;;;4989037;28;88166;-71
2023/02/16 04:08:41;;;;;;;117.10;11.82;;;1.90;99.90;;;;;;4981357;28;87404;-72
2023/02/16 04:13:50;;;;;;;188.10;12.65;;;1.90;99.90;;;;;;4980188;28;86287;-71
2023/02/16 04:16:16;;;;;;;192.40;11.20;;;1.80;99.90;;;;;;4978050;28;87613;-72
2023/02/16 04:18:42;;;;;;;67.60;9.55;;;1.70;99.90;;;;;;4997666;28;87927;-70
2023/02/16 04:21:08;;;;;;;200.32;10.15;;;1.60;99.90;;;;;;4994180;28;88435;-69
2023/02/16 04:23:33;;;;;;;272.65;12.80;;;1.60;99.90;;;;;;4979097;28;87444;-70
2023/02/16 04:25:59;;;;;;;119.82;10.38;;;1.50;99.90;;;;;;4977634;28;87332;-72
2023/02/16 04:28:25;;;;;;;61.33;8.85;;;1.50;99.90;;;;;;4983875;28;87361;-71
2023/02/16 04:30:51;;;;;;;71.72;9.73;;;1.50;99.90;;;;;;4978527;28;87306;-70
2023/02/16 04:33:16;;;;;;;131.75;9.82;;;1.60;99.90;;;;;;4978841;28;87155;-72
2023/02/16 04:35:42;;;;;;;56.53;7.75;;;1.60;99.90;;;;;;4976024;28;88595;-72
2023/02/16 04:38:08;;;;;;;142.15;10.45;;;1.60;99.90;;;;;;4983170;28;87211;-72
2023/02/16 04:40:33;;;;;;;136.50;8.95;;;1.60;99.70;;;;;;4984726;28;88184;-70
2023/02/16 04:42:59;;;;;;;26.67;8.27;;;1.40;99.90;;;;;;4998149;28;87187;-72
2023/02/16 04:45:25;;;;;;;103.20;10.10;;;1.40;99.90;;;;;;4988656;28;88574;-70
2023/02/16 04:47:50;;;;;;;98.72;9.65;;;1.30;99.90;;;;;;4977443;28;87627;-71
2023/02/16 04:50:16;;;;;;;99.13;9.57;;;1.20;99.70;;;;;;4982469;28;87482;-73
2023/02/16 04:52:42;;;;;;;88.93;9.00;;;1.10;99.90;;;;;;4997193;28;87265;-71
2023/02/16 04:55:09;;;;;;;63.35;8.65;;;0.90;99.30;;;;;;4995666;28;88627;-75
2023/02/16 04:57:38;;;;;;;45.97;8.63;;;0.70;99.80;;;;;;4978523;28;88621;-73
2023/02/16 05:00:10;;;;;;;86.05;10.02;;;0.50;99.90;;;;;;4980182;28;87492;-71
2023/02/16 05:02:36;;;;;;;32.47;9.18;;;0.30;99.90;;;;;;4998642;28;86898;-71
2023/02/16 05:05:01;;;;;;;38.15;9.65;;;0.10;99.90;;;;;;4985138;28;88250;-71
2023/02/16 05:07:27;;;;;;;28.30;10.13;;;0.10;99.90;;;;;;4978467;28;87343;-73
2023/02/16 05:09:53;;;;;;;22.48;8.95;;;0.20;99.90;;;;;;4977172;28;88346;-74
2023/02/16 05:15:04;;;;;;;20.10;8.05;;;0.10;99.90;;;;;;4979096;28;87546;-70
2023/02/16 05:17:30;;;;;;;24.17;8.82;;;0.10;99.90;;;;;;4980743;28;87861;-73
2023/02/16 05:19:58;;;;;;;21.95;9.18;;;-0.10;99.90;;;;;;4977975;28;87058;-73
2023/02/16 05:22:24;;;;;;;21.52;8.82;;;-0.10;99.90;;;;;;4994402;28;87653;-72
2023/02/16 05:24:50;;;;;;;21.02;8.02;;;-0.10;99.90;;;;;;4983384;28;87950;-70
2023/02/16 05:27:23;;;;;;;24.35;8.43;;;0.10;99.90;;;;;;4996052;28;88028;-70
2023/02/16 05:29:49;;;;;;;26.27;8.30;;;0.20;99.90;;;;;;4991925;28;87448;-70
2023/02/16 05:32:15;;;;;;;38.08;9.98;;;0.30;99.90;;;;;;4991403;28;89489;-72
2023/02/16 05:34:43;;;;;;;30.38;8.50;;;0.40;99.90;;;;;;4988653;28;89608;-70
2023/02/16 05:37:09;;;;;;;27.85;8.25;;;0.50;99.90;;;;;;4980608;28;91880;-69
2023/02/16 05:39:35;;;;;;;79.05;9.70;;;0.60;99.90;;;;;;4978270;28;87406;-72
2023/02/16 05:42:00;;;;;;;44.00;9.90;;;0.70;99.90;;;;;;4978364;28;87514;-70
2023/02/16 05:44:26;;;;;;;46.78;9.35;;;0.70;99.90;;;;;;4978455;28;87966;-72
2023/02/16 05:46:52;;;;;;;45.15;9.18;;;0.80;99.90;;;;;;4984162;28;88398;-72
2023/02/16 05:49:18;;;;;;;38.50;9.32;;;0.90;99.90;;;;;;4977577;28;87223;-72
2023/02/16 05:51:44;;;;;;;221.85;13.10;;;1.00;99.90;;;;;;4978317;28;86329;-70
2023/02/16 05:54:15;;;;;;;77.60;9.55;;;1.10;99.90;;;;;;4996870;28;87675;-72
2023/02/16 05:56:43;;;;;;;80.68;9.57;;;1.10;99.90;;;;;;4976570;28;87404;-69
2023/02/16 05:59:09;;;;;;;48.28;10.07;;;1.20;99.90;;;;;;4987812;28;88260;-70
2023/02/16 06:01:34;;;;;;;55.42;9.27;;;1.20;99.90;;;;;;4989762;28;88229;-73
2023/02/16 06:04:00;;;;;;;58.58;9.30;;;1.30;99.90;;;;;;4985076;28;88071;-71
2023/02/16 06:06:25;;;;;;;42.47;9.02;;;1.30;99.90;;;;;;4973033;28;87882;-72
2023/02/16 06:08:51;;;;;;;24.13;7.97;;;1.30;99.90;;;;;;4981294;28;87466;-69
2023/02/16 06:11:35;;;;;;;63.72;9.60;;;1.30;99.90;;;;;;4977495;28;87450;-73
2023/02/16 06:14:08;;;;;;;;;;;1.40;99.90;;;;;;4988185;28;87946;-72
2023/02/16 06:16:35;;;;;;;51.65;7.13;;;1.40;99.90;;;;;;4991250;28;87397;-71
2023/02/16 06:19:01;;;;;;;47.50;8.10;;;1.40;99.90;;;;;;4977583;28;87252;-73
2023/02/16 06:21:28;;;;;;;60.28;9.02;;;1.40;99.90;;;;;;4983532;28;87466;-74
2023/02/16 06:23:54;;;;;;;49.50;9.05;;;1.40;99.90;;;;;;4975619;28;89297;-74
2023/02/16 06:26:20;;;;;;;110.70;9.05;;;1.30;99.90;;;;;;4977041;28;88379;-72
2023/02/16 06:28:46;;;;;;;103.57;8.85;;;1.40;99.90;;;;;;4975372;28;87962;-74
2023/02/16 06:31:11;;;;;;;172.90;9.82;;;1.30;99.90;;;;;;4976311;28;87509;-73
2023/02/16 06:33:37;;;;;;;31.48;8.70;;;1.30;99.90;;;;;;4992703;28;88550;-72
2023/02/16 06:36:04;;;;;;;53.15;9.48;;;1.20;99.90;;;;;;4974531;28;87811;-73
2023/02/16 06:38:29;;;;;;;96.75;9.93;;;1.20;99.90;;;;;;4969660;28;87285;-71
2023/02/16 06:40:55;;;;;;;150.68;11.38;;;1.10;99.90;;;;;;4974462;28;88311;-73
2023/02/16 06:43:21;;;;;;;108.00;10.85;;;1.00;99.30;;;;;;4984704;28;88162;-72
2023/02/16 06:45:47;;;;;;;87.93;11.82;;;0.80;99.60;;;;;;4977514;28;87940;-73
2023/02/16 06:48:13;;;;;;;60.95;10.63;;;0.70;99.90;;;;;;4976781;28;89575;-72
2023/02/16 06:50:38;;;;;;;26.33;9.57;;;0.70;99.90;;;;;;4975896;28;87527;-71
2023/02/16 06:53:04;;;;;;;23.35;10.25;;;0.70;99.90;;;;;;4973480;28;88043;-73
2023/02/16 06:55:34;;;;;;;26.92;10.68;;;0.80;99.90;;;;;;4988678;28;90263;-71
2023/02/16 06:58:00;;;;;;;23.17;9.57;;;1.00;99.20;;;;;;4962664;28;87159;-72
2023/02/16 07:00:26;;;;;;;19.23;9.32;;;1.20;98.80;;;;;;4978221;28;88908;-73
2023/02/16 07:02:52;;;;;;;19.77;9.25;;;1.40;98.30;;;;;;4978207;28;88705;-73
2023/02/16 07:05:18;;;;;;;20.15;9.20;;;1.80;96.50;;;;;;4976420;28;88389;-71
2023/02/16 07:07:44;;;;;;;22.38;9.55;;;1.90;95.10;;;;;;4989688;28;87698;-71
2023/02/16 07:10:09;;;;;;;18.55;8.63;;;1.90;94.40;;;;;;4977993;28;87964;-72
2023/02/16 07:12:35;;;;;;;20.20;8.88;;;2.20;94.80;;;;;;4974176;28;88616;-72
2023/02/16 07:15:01;;;;;;;19.48;8.70;;;2.40;93.40;;;;;;4983734;28;89221;-72
2023/02/16 07:17:26;;;;;;;19.70;9.02;;;2.60;92.90;;;;;;4979425;28;87452;-70
2023/02/16 07:19:52;;;;;;;22.98;9.95;;;2.50;92.00;;;;;;4972968;28;89757;-72
2023/02/16 07:22:18;;;;;;;22.55;8.73;;;2.60;92.50;;;;;;4982490;28;87664;-72
2023/02/16 07:24:44;;;;;;;18.45;7.88;;;2.60;91.90;;;;;;4990716;28;88104;-73
2023/02/16 07:27:09;;;;;;;17.75;8.70;;;2.60;91.10;;;;;;4989139;28;88418;-71
2023/02/16 07:29:35;;;;;;;15.82;7.75;;;3.00;91.40;;;;;;4980337;28;86250;-72
2023/02/16 07:32:02;;;;;;;16.33;8.30;;;3.70;90.40;;;;;;4985479;28;88217;-71
2023/02/16 07:34:27;;;;;;;16.20;8.35;;;4.20;88.70;;;;;;4970012;28;89296;-70
2023/02/16 07:36:53;;;;;;;18.30;8.85;;;5.00;86.40;;;;;;4975027;28;90570;-71
2023/02/16 07:39:19;;;;;;;26.17;9.80;;;5.20;81.50;;;;;;4978822;28;87547;-73
2023/02/16 07:41:44;;;;;;;18.80;9.25;;;4.70;82.70;;;;;;4971682;28;88830;-72
2023/02/16 07:44:10;;;;;;;20.58;9.43;;;4.40;85.80;;;;;;4981946;28;87363;-73
2023/02/16 07:46:36;;;;;;;20.40;9.10;;;4.00;86.60;;;;;;4986704;28;87450;-71
2023/02/16 07:49:01;;;;;;;60.95;11.55;;;3.80;88.40;;;;;;4980009;28;87318;-72
2023/02/16 07:51:29;;;;;;;50.20;8.27;;;3.60;90.10;;;;;;4979974;28;87638;-71
2023/02/16 07:53:56;;;;;;;55.95;6.88;;;3.40;91.20;;;;;;4973710;28;87830;-72
2023/02/16 07:56:24;;;;;;;37.70;8.27;;;3.40;91.50;;;;;;4981324;28;87395;-71
2023/02/16 07:58:51;;;;;;;27.48;9.60;;;3.30;91.80;;;;;;4989991;28;87875;-71
2023/02/16 08:01:17;;;;;;;183.73;11.90;;;3.20;92.10;;;;;;4975608;28;89009;-72
2023/02/16 08:03:43;;;;;;;67.03;9.23;;;3.10;91.90;;;;;;4979311;28;88687;-71
2023/02/16 08:06:08;;;;;;;120.10;9.05;;;3.10;92.90;;;;;;4979755;28;87439;-74
2023/02/16 08:08:35;;;;;;;71.43;7.90;;;3.10;93.00;;;;;;4973424;28;87383;-71
2023/02/16 08:11:22;;;;;;;116.15;9.70;;;3.00;93.10;;;;;;4993195;28;87957;-71
2023/02/16 08:13:49;;;;;;;132.70;7.93;;;3.10;93.40;;;;;;4982016;28;88353;-71
2023/02/16 08:16:18;;;;;;;97.30;7.38;;;3.20;93.90;;;;;;4976486;28;87545;-71
2023/02/16 08:18:44;;;;;;;61.13;8.23;;;3.40;93.50;;;;;;4976589;28;86292;-70
2023/02/16 08:21:13;;;;;;;94.53;7.38;;;3.50;93.30;;;;;;4971310;28;87607;-71
2023/02/16 08:23:46;;;;;;;81.60;8.98;;;3.60;93.50;;;;;;4976133;28;88559;-70
2023/02/16 08:26:16;;;;;;;82.93;7.82;;;3.60;93.20;;;;;;4976561;28;90347;-68
2023/02/16 08:28:46;;;;;;;76.32;7.50;;;3.60;93.50;;;;;;4975878;28;87727;-70
2023/02/16 08:31:13;;;;;;;91.35;8.30;;;3.70;93.70;;;;;;4966917;28;87673;-69
2023/02/16 08:33:38;;;;;;;50.08;7.75;;;3.60;93.70;;;;;;4970862;28;88069;-69
2023/02/16 08:36:08;;;;;;;97.10;7.78;;;3.70;93.90;;;;;;4971956;28;88987;-70
2023/02/16 08:38:34;;;;;;;84.22;7.38;;;3.80;93.50;;;;;;4979968;28;87922;-69
2023/02/16 08:41:01;;;;;;;80.65;6.55;;;3.90;93.40;;;;;;4984526;28;87432;-69
2023/02/16 08:43:27;;;;;;;98.45;6.88;;;4.00;93.30;;;;;;4995394;28;88006;-70
2023/02/16 08:45:53;;;;;;;130.30;7.70;;;4.00;93.10;;;;;;4978419;28;87785;-69
2023/02/16 08:48:18;;;;;;;100.10;8.35;;;4.20;93.10;;;;;;4978794;28;87812;-69
2023/02/16 08:50:46;;;;;;;41.97;7.57;;;4.50;93.10;;;;;;4985495;28;89304;-70
2023/02/16 08:53:12;;;;;;;41.33;7.07;;;4.90;92.70;;;;;;4995012;28;88253;-69
2023/02/16 08:55:38;;;;;;;57.08;7.57;;;5.30;91.70;;;;;;4986128;28;87398;-66
2023/02/16 08:58:04;;;;;;;60.85;7.20;;;5.90;91.00;;;;;;4984138;28;87603;-68
2023/02/16 09:00:33;;;;;;;148.75;10.00;;;6.40;89.50;;;;;;4983312;28;88093;-69
2023/02/16 09:02:59;;;;;;;69.80;8.13;;;6.90;87.20;;;;;;4994113;28;88098;-68
2023/02/16 09:05:26;;;;;;;95.97;10.40;;;7.00;86.30;;;;;;4978619;28;87070;-68
2023/02/16 09:07:53;;;;;;;54.33;9.25;;;6.90;86.00;;;;;;4979372;28;86357;-68
2023/02/16 09:10:21;;;;;;;73.88;7.88;;;6.90;86.30;;;;;;4983808;28;88104;-68
2023/02/16 09:12:48;;;;;;;36.05;7.07;;;6.80;86.40;;;;;;4975843;28;87938;-69
2023/02/16 09:15:15;;;;;;;15.25;7.40;;;7.00;86.30;;;;;;4971483;28;88398;-70
2023/02/16 09:17:41;;;;;;;43.13;8.07;;;7.40;85.80;;;;;;4978964;28;87447;-69
2023/02/16 09:20:08;;;;;;;53.25;7.72;;;7.70;83.60;;;;;;4975586;28;88829;-69
2023/02/16 09:22:34;;;;;;;28.15;7.25;;;7.90;82.70;;;;;;4989340;28;88607;-69
2023/02/16 09:24:59;;;;;;;62.70;8.30;;;8.10;81.80;;;;;;4975110;28;87642;-69
2023/02/16 09:27:26;;;;;;;59.70;8.63;;;8.10;81.90;;;;;;4981552;28;87346;-69
2023/02/16 09:29:52;;;;;;;19.50;7.20;;;8.20;81.50;;;;;;4975281;28;87548;-68
2023/02/16 09:32:17;;;;;;;47.60;8.05;;;8.80;81.20;;;;;;4989164;28;86849;-69
2023/02/16 09:34:43;;;;;;;19.50;7.50;;;9.60;77.40;;;;;;4973186;28;87137;-70
2023/02/16 09:37:10;;;;;;;16.10;7.70;;;10.00;77.30;;;;;;4977001;28;88315;-71
2023/02/16 09:39:35;;;;;;;21.23;7.80;;;10.10;76.20;;;;;;4972596;28;91042;-70
2023/02/16 09:42:23;;;;;;;26.73;7.85;;;9.90;74.50;;;;;;4978147;28;88205;-70
2023/02/16 09:45:10;;;;;;;23.90;8.77;;;9.50;77.00;;;;;;4983462;28;87059;-71
2023/02/16 09:47:39;;;;;;;36.85;9.65;;;9.30;76.40;;;;;;4974501;28;87319;-69
2023/02/16 09:50:28;;;;;;;16.60;8.00;;;9.10;77.50;;;;;;4970320;28;88543;-69
2023/02/16 09:53:23;;;;;;;15.95;7.57;;;8.90;77.80;;;;;;4973228;28;88010;-70
2023/02/16 09:55:56;;;;;;;13.75;7.38;;;9.20;77.50;;;;;;4967311;28;87474;-70
2023/02/16 09:58:41;;;;;;;16.75;8.10;;;9.40;77.20;;;;;;4969096;28;87005;-68
2023/02/16 10:01:20;;;;;;;16.30;8.57;;;9.40;76.90;;;;;;4969079;28;88053;-69
2023/02/16 10:04:07;;;;;;;14.40;7.50;;;9.90;76.20;;;;;;4974675;28;88479;-68
2023/02/16 10:06:49;;;;;;;17.63;7.60;;;10.20;75.40;;;;;;4965543;28;88217;-75
2023/02/16 10:09:18;;;;;;;22.20;7.78;;;10.10;74.30;;;;;;4985680;28;87581;-70
2023/02/16 10:12:01;;;;;;;16.20;7.80;;;9.90;73.50;;;;;;4968727;28;87922;-71
2023/02/16 10:14:36;;;;;;;16.30;7.97;;;9.80;76.10;;;;;;4972573;28;88658;-70
2023/02/16 10:17:36;;;;;;;19.40;8.10;;;10.90;73.80;;;;;;4972305;28;88140;-73
2023/02/16 10:20:24;;;;;;;20.77;8.13;;;11.20;72.80;;;;;;4982575;28;87209;-70
2023/02/16 10:23:08;;;;;;;15.13;8.27;;;10.80;72.30;;;;;;4976678;28;87444;-69
2023/02/16 10:26:14;;;;;;;19.60;9.88;;;10.30;73.90;;;;;;4970887;28;88324;-69
2023/02/16 10:28:46;;;;;;;16.45;8.93;;;10.00;75.10;;;;;;4963141;28;87430;-70
2023/02/16 10:31:21;;;;;;;16.52;9.00;;;9.90;75.70;;;;;;4965830;28;87761;-69
2023/02/16 10:34:05;;;;;;;22.90;8.82;;;9.80;75.50;;;;;;4976288;28;89127;-70
2023/02/16 10:36:49;;;;;;;19.33;9.10;;;9.60;75.20;;;;;;4982812;28;88444;-71
2023/02/16 10:39:18;;;;;;;15.75;7.22;;;9.40;76.30;;;;;;4997206;28;87223;-72
2023/02/16 10:41:51;;;;;;;17.73;8.88;;;9.50;77.00;;;;;;4985302;28;87518;-70
2023/02/16 10:44:27;;;;;;;17.67;9.30;;;9.50;77.60;;;;;;4978282;28;88200;-71
2023/02/16 10:47:01;;;;;;;20.25;9.15;;;9.80;76.50;;;;;;4976251;28;88473;-69
2023/02/16 10:49:30;;;;;;;22.58;11.30;;;10.00;75.80;;;;;;4974438;28;87543;-70
2023/02/16 10:51:57;;;;;;;21.05;10.75;;;10.10;77.20;;;;;;4983440;28;87042;-68
2023/02/16 10:54:29;;;;;;;17.48;8.35;;;10.00;75.90;;;;;;4972075;28;87760;-69
2023/02/16 10:57:22;;;;;;;23.70;9.05;;;10.00;76.70;;;;;;4985648;28;88289;-70
2023/02/16 10:59:48;;;;;;;23.35;8.52;;;9.70;76.10;;;;;;4975592;28;88044;-68
2023/02/16 11:02:29;;;;;;;19.38;9.20;;;9.70;76.40;;;;;;4995577;28;87414;-70
2023/02/16 11:04:57;;;;;;;13.85;7.90;;;9.30;77.90;;;;;;4994664;28;87878;-71
2023/02/16 11:07:28;;;;;;;20.35;9.40;;;9.20;78.60;;;;;;4998062;28;88793;-69
2023/02/16 11:10:02;;;;;;;22.08;9.90;;;9.10;79.40;;;;;;4986950;28;87414;-69
2023/02/16 11:12:35;;;;;;;16.17;7.85;;;9.10;79.30;;;;;;4978823;28;87560;-70
2023/02/16 11:15:21;;;;;;;21.17;8.98;;;9.20;79.90;;;;;;4994676;28;88207;-69
2023/02/16 11:17:53;;;;;;;20.23;9.75;;;9.10;79.40;;;;;;4973778;28;88362;-70
2023/02/16 11:20:35;;;;;;;23.65;9.43;;;9.00;81.00;;;;;;4972520;28;87904;-71
2023/02/16 11:23:14;;;;;;;16.92;7.75;;;8.90;81.60;;;;;;4974551;28;87147;-69
2023/02/16 11:25:41;;;;;;;17.08;8.15;;;9.00;81.30;;;;;;4974134;28;90256;-70
2023/02/16 11:28:08;;;;;;;20.00;9.02;;;9.00;81.20;;;;;;4972993;28;89218;-70
2023/02/16 11:30:41;;;;;;;16.55;7.88;;;8.90;80.70;;;;;;4976923;28;87572;-70
2023/02/16 11:33:25;;;;;;;15.75;7.90;;;9.10;80.50;;;;;;4978245;28;87563;-69
2023/02/16 11:35:52;;;;;;;16.42;8.07;;;9.00;81.00;;;;;;4978454;28;87695;-71
2023/02/16 11:38:33;;;;;;;18.10;8.00;;;9.00;78.90;;;;;;4985706;28;87474;-70
2023/02/16 11:41:01;;;;;;;17.08;7.38;;;9.00;80.80;;;;;;4973118;28;90026;-69
2023/02/16 11:43:31;;;;;;;14.57;7.72;;;9.20;80.70;;;;;;4976693;28;86473;-69
2023/02/16 11:46:13;;;;;;;16.10;8.65;;;9.30;79.30;;;;;;4975651;28;90135;-68
2023/02/16 11:48:39;;;;;;;13.93;7.30;;;9.50;78.40;;;;;;4975964;28;88149;-68
2023/02/16 11:51:10;;;;;;;15.35;7.25;;;9.60;78.30;;;;;;4976828;28;88451;-69
2023/02/16 11:53:41;;;;;;;19.17;7.60;;;9.40;77.00;;;;;;4982612;28;87554;-70
2023/02/16 11:56:20;;;;;;;14.48;7.63;;;9.40;77.90;;;;;;4999306;28;88997;-70
2023/02/16 11:59:01;;;;;;;14.57;7.65;;;9.50;78.70;;;;;;4978645;28;88787;-69
2023/02/16 12:01:58;;;;;;;17.80;7.25;;;9.60;79.10;;;;;;4980209;28;87374;-69
2023/02/16 12:04:49;;;;;;;13.40;7.07;;;9.80;79.10;;;;;;4978729;28;87690;-70
2023/02/16 12:07:36;;;;;;;14.77;7.57;;;10.00;77.30;;;;;;4958100;28;90468;-71
2023/02/16 12:10:10;;;;;;;13.50;7.55;;;10.10;77.40;;;;;;4983208;28;87361;-71
2023/02/16 12:13:02;;;;;;;19.00;8.13;;;10.30;77.30;;;;;;4976980;28;88717;-71
2023/02/16 12:15:49;;;;;;;21.83;7.35;;;10.50;77.20;;;;;;4971378;28;87616;-72
2023/02/16 12:18:21;;;;;;;16.15;7.43;;;10.40;76.30;;;;;;4978037;28;88612;-69
2023/02/16 12:20:57;;;;;;;14.82;7.32;;;10.30;77.40;;;;;;4979857;28;89605;-70
2023/02/16 12:23:38;;;;;;;15.68;6.95;;;10.30;76.90;;;;;;4982407;28;87404;-70
2023/02/16 12:26:25;;;;;;;13.45;7.30;;;10.20;75.80;;;;;;4979661;28;87672;-70
2023/02/16 12:29:29;;;;;;;16.52;7.68;;;10.20;77.00;;;;;;4981684;28;87530;-69
2023/02/16 12:32:12;;;;;;;14.80;7.22;;;10.30;76.70;;;;;;4936006;28;88651;-68
2023/02/16 12:34:59;;;;;;;25.58;7.43;;;10.20;77.00;;;;;;4933389;28;87408;-70
2023/02/16 12:37:36;;;;;;;13.55;7.25;;;10.10;76.00;;;;;;4971047;28;86927;-71
2023/02/16 12:40:02;;;;;;;;;;;9.70;76.40;;;;;;4975052;28;87665;-68
2023/02/16 12:42:54;;;;;;;14.52;7.05;;;9.50;77.90;;;;;;4997391;28;87682;-71
2023/02/16 12:45:26;;;;;;;12.95;6.35;;;9.20;78.40;;;;;;4977820;28;88468;-71
2023/02/16 12:48:00;;;;;;;13.07;7.18;;;9.00;79.30;;;;;;4996389;28;87457;-70
2023/02/16 12:50:31;;;;;;;14.93;6.07;;;8.90;80.50;;;;;;4981683;28;88818;-71
2023/02/16 12:53:10;;;;;;;15.52;7.20;;;8.70;82.10;;;;;;4979496;28;87876;-70
2023/02/16 12:55:49;;;;;;;16.83;6.57;;;8.60;81.20;;;;;;4982268;28;87431;-72
2023/02/16 12:58:18;;;;;;;14.65;7.00;;;8.40;81.90;;;;;;4977998;28;87854;-70
2023/02/16 13:00:48;;;;;;;13.38;7.25;;;8.10;82.50;;;;;;4975859;28;88240;-70
2023/02/16 13:03:37;;;;;;;16.20;7.20;;;8.20;83.80;;;;;;4988187;28;89089;-70
2023/02/16 13:06:16;;;;;;;13.77;7.28;;;8.10;83.50;;;;;;4977757;28;87912;-70
2023/02/16 13:08:50;;;;;;;15.25;7.32;;;8.00;83.80;;;;;;4977229;28;87235;-69
2023/02/16 13:11:23;;;;;;;15.35;7.25;;;7.80;85.70;;;;;;4983008;28;89103;-70
2023/02/16 13:13:52;;;;;;;14.57;6.82;;;7.70;85.70;;;;;;4982663;28;88288;-71
2023/02/16 13:16:22;;;;;;;13.77;7.07;;;7.60;86.40;;;;;;4977019;28;88416;-70
2023/02/16 13:18:50;;;;;;;13.77;7.38;;;7.70;86.80;;;;;;4978921;28;87680;-70
2023/02/16 13:21:28;;;;;;;14.82;7.57;;;7.70;87.80;;;;;;4985234;28;88265;-70
2023/02/16 13:24:02;;;;;;;14.65;6.63;;;7.70;88.30;;;;;;4975354;28;87285;-70
2023/02/16 13:26:49;;;;;;;13.32;6.78;;;7.80;88.30;;;;;;4975686;28;88978;-70
2023/02/16 13:29:25;;;;;;;15.10;7.63;;;7.80;87.90;;;;;;4973571;28;86357;-70
2023/02/16 13:32:05;;;;;;;14.50;7.00;;;7.90;87.80;;;;;;4976350;28;88172;-70
2023/02/16 13:35:08;;;;;;;17.35;8.30;;;7.90;88.10;;;;;;4983305;28;87964;-70
2023/02/16 13:37:57;;;;;;;18.60;7.57;;;8.00;88.50;;;;;;4978184;28;88278;-70
2023/02/16 13:40:57;;;;;;;15.48;7.05;;;8.10;88.20;;;;;;4986925;28;88609;-70
2023/02/16 13:43:33;;;;;;;13.95;7.10;;;8.30;87.30;;;;;;4982550;28;87789;-71
2023/02/16 13:46:05;;;;;;;18.67;7.50;;;8.30;86.70;;;;;;4979659;28;88077;-71